Time;durP1;ratioP1;P1;durP2;ratioP2;P2;SDS_P1;SDS_P2;PMS_P1;PMS_P2;Temp;Humidity;BMP_temperature;BMP_pressure;BME280_temperature;BME280_humidity;BME280_pressure;Samples;Min_cycle;Max_cycle;Signal;HPM_P1;HPM_P2
2021/09/24 00:01:02;;;;;;;1136.50;999.90;;;;;;;;;;5004453;28;20062;-75
2021/09/24 00:03:28;;;;;;;1141.45;999.90;;;;;;;;;;5002344;28;20041;-75
2021/09/24 00:05:54;;;;;;;1133.93;999.90;;;;;;;;;;5005597;28;20105;-75
2021/09/24 00:08:21;;;;;;;1137.78;999.90;;;;;;;;;;5001021;28;20140;-74
2021/09/24 00:10:48;;;;;;;1143.30;999.90;;;;;;;;;;5006303;28;20021;-75
2021/09/24 00:13:14;;;;;;;1143.95;999.90;;;;;;;;;;5000895;28;20403;-74
2021/09/24 00:15:40;;;;;;;1148.45;999.90;;;;;;;;;;5008174;28;20105;-74
2021/09/24 00:18:07;;;;;;;1146.97;999.90;;;;;;;;;;5006023;28;20394;-75
2021/09/24 00:20:34;;;;;;;1151.18;999.90;;;;;;;;;;5011142;28;20560;-74
2021/09/24 00:23:00;;;;;;;1140.50;999.90;;;;;;;;;;5007729;28;20018;-75
2021/09/24 00:25:26;;;;;;;1135.72;999.90;;;;;;;;;;5009369;28;20030;-74
2021/09/24 00:27:53;;;;;;;1138.28;999.90;;;;;;;;;;5010948;28;20029;-75
2021/09/24 00:30:19;;;;;;;1128.95;999.90;;;;;;;;;;5016825;28;20655;-75
2021/09/24 00:32:45;;;;;;;1124.93;999.90;;;;;;;;;;5007822;28;20041;-74
2021/09/24 00:35:14;;;;;;;1127.93;999.90;;;;;;;;;;5021132;28;20129;-75
2021/09/24 00:37:41;;;;;;;1114.05;999.33;;;;;;;;;;5009607;28;20574;-74
2021/09/24 00:40:08;;;;;;;1115.55;999.67;;;;;;;;;;5015574;28;20026;-74
2021/09/24 00:42:34;;;;;;;1112.50;998.95;;;;;;;;;;5010375;28;20054;-74
2021/09/24 00:45:01;;;;;;;1115.03;999.72;;;;;;;;;;5008458;28;20028;-74
2021/09/24 00:47:28;;;;;;;1109.20;997.55;;;;;;;;;;5010864;28;20053;-75
2021/09/24 00:49:54;;;;;;;1115.10;999.53;;;;;;;;;;5014894;28;20516;-74
2021/09/24 00:52:20;;;;;;;1119.00;999.90;;;;;;;;;;5009824;28;20064;-74
2021/09/24 00:54:50;;;;;;;1116.85;999.90;;;;;;;;;;5008270;28;20105;-74
2021/09/24 00:57:16;;;;;;;1113.43;999.08;;;;;;;;;;5008649;28;20121;-74
2021/09/24 00:59:42;;;;;;;1115.03;999.45;;;;;;;;;;5007668;28;20069;-74
2021/09/24 01:02:08;;;;;;;1118.20;999.90;;;;;;;;;;5008606;28;20373;-75
2021/09/24 01:04:35;;;;;;;1131.30;999.90;;;;;;;;;;5007368;28;20027;-75
2021/09/24 01:07:01;;;;;;;1133.07;999.90;;;;;;;;;;5009241;28;20026;-75
2021/09/24 01:09:28;;;;;;;1126.03;999.90;;;;;;;;;;5016217;28;20029;-74
2021/09/24 01:11:54;;;;;;;1121.28;999.90;;;;;;;;;;5010821;28;20033;-74
2021/09/24 01:14:20;;;;;;;1122.45;999.90;;;;;;;;;;5005383;28;20038;-75
2021/09/24 01:16:51;;;;;;;1128.13;999.90;;;;;;;;;;5010113;28;20057;-74
2021/09/24 01:19:17;;;;;;;1137.10;999.90;;;;;;;;;;5012983;28;20033;-74
2021/09/24 01:21:43;;;;;;;1142.22;999.90;;;;;;;;;;5013778;28;20525;-74
2021/09/24 01:24:10;;;;;;;1125.50;999.90;;;;;;;;;;5003384;28;20021;-74
2021/09/24 01:26:36;;;;;;;1119.68;999.90;;;;;;;;;;5010930;28;20022;-74
2021/09/24 01:29:02;;;;;;;1114.68;999.28;;;;;;;;;;5007378;28;20097;-75
2021/09/24 01:31:28;;;;;;;1120.38;999.90;;;;;;;;;;5011611;28;20436;-74
2021/09/24 01:33:54;;;;;;;1125.22;999.90;;;;;;;;;;5006249;28;20083;-74
2021/09/24 01:36:20;;;;;;;1131.35;999.90;;;;;;;;;;5039038;28;20613;-76
2021/09/24 01:38:46;;;;;;;1131.47;999.90;;;;;;;;;;5008117;28;20097;-74
2021/09/24 01:41:12;;;;;;;1130.43;999.90;;;;;;;;;;5013941;28;20018;-74
2021/09/24 01:43:38;;;;;;;1127.85;999.90;;;;;;;;;;5010443;28;20616;-74
2021/09/24 01:46:05;;;;;;;1112.82;998.85;;;;;;;;;;5009993;28;20037;-74
2021/09/24 01:48:35;;;;;;;1110.22;997.90;;;;;;;;;;5011615;28;20032;-74
2021/09/24 01:51:01;;;;;;;1112.82;998.83;;;;;;;;;;5007394;28;20087;-74
2021/09/24 01:53:27;;;;;;;1111.30;998.20;;;;;;;;;;5008450;28;20053;-74
2021/09/24 01:55:53;;;;;;;1105.95;995.20;;;;;;;;;;5009857;28;20022;-74
2021/09/24 01:58:19;;;;;;;1111.00;998.08;;;;;;;;;;5008796;28;20113;-76
2021/09/24 02:00:46;;;;;;;1114.22;999.15;;;;;;;;;;5014530;28;20451;-74
2021/09/24 02:03:12;;;;;;;1122.13;999.90;;;;;;;;;;5005701;28;20014;-73
2021/09/24 02:05:38;;;;;;;1117.72;999.90;;;;;;;;;;5007623;28;20045;-74
2021/09/24 02:08:05;;;;;;;1124.75;999.90;;;;;;;;;;5008867;28;20034;-74
2021/09/24 02:10:31;;;;;;;1127.20;999.90;;;;;;;;;;5015122;28;20030;-73
2021/09/24 02:12:57;;;;;;;1117.38;999.88;;;;;;;;;;5012138;28;20049;-74
2021/09/24 02:15:25;;;;;;;1113.60;998.83;;;;;;;;;;5010538;28;20037;-74
2021/09/24 02:17:51;;;;;;;1120.78;999.90;;;;;;;;;;5011728;28;20091;-73
2021/09/24 02:20:17;;;;;;;1122.50;999.90;;;;;;;;;;5011603;28;20029;-74
2021/09/24 02:22:43;;;;;;;1114.93;998.95;;;;;;;;;;5009009;28;20558;-73
2021/09/24 02:25:10;;;;;;;1122.47;999.90;;;;;;;;;;5007492;28;20115;-73
2021/09/24 02:27:36;;;;;;;1109.63;997.05;;;;;;;;;;5007396;28;20315;-73
2021/09/24 02:30:03;;;;;;;1098.50;988.85;;;;;;;;;;5004309;28;20032;-75
2021/09/24 02:32:30;;;;;;;1085.35;976.42;;;;;;;;;;5006930;28;20474;-73
2021/09/24 02:34:56;;;;;;;1093.93;984.42;;;;;;;;;;5010744;28;20113;-75
2021/09/24 02:37:23;;;;;;;1096.80;987.25;;;;;;;;;;5019680;28;20044;-75
2021/09/24 02:39:49;;;;;;;1099.03;989.45;;;;;;;;;;5008752;28;20026;-74
2021/09/24 02:42:15;;;;;;;1101.95;991.97;;;;;;;;;;5008157;28;20030;-75
2021/09/24 02:44:41;;;;;;;1096.35;987.05;;;;;;;;;;5007371;28;20425;-74
2021/09/24 02:47:09;;;;;;;1105.22;994.97;;;;;;;;;;5007119;28;20050;-74
2021/09/24 02:49:37;;;;;;;1104.45;994.42;;;;;;;;;;5008250;28;20018;-74
2021/09/24 02:52:04;;;;;;;1106.63;995.80;;;;;;;;;;5009876;28;20489;-75
2021/09/24 02:54:31;;;;;;;1105.20;994.75;;;;;;;;;;5027797;28;20025;-74
2021/09/24 02:56:57;;;;;;;1114.72;999.20;;;;;;;;;;5010476;28;20508;-74
2021/09/24 02:59:24;;;;;;;1106.20;995.30;;;;;;;;;;5007583;28;20030;-75
2021/09/24 03:01:52;;;;;;;1104.25;994.08;;;;;;;;;;5039438;28;20030;-74
2021/09/24 03:04:18;;;;;;;1098.47;988.97;;;;;;;;;;5006767;28;20034;-75
2021/09/24 03:06:45;;;;;;;1097.43;987.85;;;;;;;;;;5006642;28;20026;-74
2021/09/24 03:09:11;;;;;;;1107.78;996.72;;;;;;;;;;5007503;28;20068;-75
2021/09/24 03:11:37;;;;;;;1104.15;994.13;;;;;;;;;;5007678;28;20431;-74
2021/09/24 03:14:04;;;;;;;1108.70;997.03;;;;;;;;;;5007957;28;20512;-74
2021/09/24 03:16:30;;;;;;;1106.93;996.15;;;;;;;;;;5009429;28;20490;-74
2021/09/24 03:18:56;;;;;;;1107.53;996.35;;;;;;;;;;5008910;28;20231;-74
2021/09/24 03:21:23;;;;;;;1125.82;999.90;;;;;;;;;;5006400;28;20029;-74
2021/09/24 03:23:49;;;;;;;1112.25;998.65;;;;;;;;;;5006263;28;20465;-74
2021/09/24 03:26:18;;;;;;;1108.03;996.63;;;;;;;;;;5013084;28;20029;-75
2021/09/24 03:28:44;;;;;;;1100.05;990.35;;;;;;;;;;5007406;28;20041;-74
2021/09/24 03:31:11;;;;;;;1103.47;993.50;;;;;;;;;;5004303;28;20045;-74
2021/09/24 03:33:37;;;;;;;1103.75;993.90;;;;;;;;;;5007560;28;20093;-75
2021/09/24 03:36:04;;;;;;;1102.75;992.78;;;;;;;;;;5000101;28;20523;-75
2021/09/24 03:38:30;;;;;;;1108.07;996.67;;;;;;;;;;5003645;28;20030;-74
2021/09/24 03:40:56;;;;;;;1117.28;999.60;;;;;;;;;;4988016;28;20101;-73
2021/09/24 03:43:26;;;;;;;1108.78;996.70;;;;;;;;;;5007041;28;20095;-73
2021/09/24 03:45:52;;;;;;;1114.45;998.72;;;;;;;;;;5005932;28;20026;-74
2021/09/24 03:48:19;;;;;;;1118.47;999.90;;;;;;;;;;5001827;28;20041;-74
2021/09/24 03:50:45;;;;;;;1120.88;999.47;;;;;;;;;;5005347;28;20040;-73
2021/09/24 03:53:12;;;;;;;1114.28;998.85;;;;;;;;;;5007170;28;20459;-73
2021/09/24 03:55:39;;;;;;;1123.50;999.90;;;;;;;;;;5005952;28;20037;-73
2021/09/24 03:58:06;;;;;;;1119.28;999.90;;;;;;;;;;5007376;28;20033;-74
2021/09/24 04:00:32;;;;;;;1118.10;999.80;;;;;;;;;;5011377;28;20465;-74
2021/09/24 04:02:59;;;;;;;1117.57;999.67;;;;;;;;;;5026710;28;20059;-75
2021/09/24 04:05:25;;;;;;;1123.53;999.90;;;;;;;;;;5011208;28;20029;-74
2021/09/24 04:07:51;;;;;;;1119.90;999.90;;;;;;;;;;5011364;28;20060;-75
2021/09/24 04:10:18;;;;;;;1116.65;999.60;;;;;;;;;;5010203;28;20026;-75
2021/09/24 04:12:44;;;;;;;1112.82;998.85;;;;;;;;;;5011560;28;20064;-74
2021/09/24 04:15:11;;;;;;;1109.82;997.63;;;;;;;;;;5009157;28;20041;-73
2021/09/24 04:17:37;;;;;;;1109.72;997.42;;;;;;;;;;5010250;28;20124;-74
2021/09/24 04:20:04;;;;;;;1108.22;996.88;;;;;;;;;;5009781;28;20412;-75
2021/09/24 04:22:30;;;;;;;1111.43;998.47;;;;;;;;;;5009396;28;20029;-74
2021/09/24 04:24:57;;;;;;;1108.88;997.08;;;;;;;;;;5009413;28;20034;-73
2021/09/24 04:27:23;;;;;;;1105.30;995.25;;;;;;;;;;5009418;28;20581;-74
2021/09/24 04:29:50;;;;;;;1100.80;990.90;;;;;;;;;;5009293;28;20269;-74
2021/09/24 04:32:16;;;;;;;1098.10;988.60;;;;;;;;;;5008180;28;20025;-73
2021/09/24 04:34:42;;;;;;;1099.88;990.03;;;;;;;;;;5011309;28;20033;-73
2021/09/24 04:37:08;;;;;;;1097.53;987.95;;;;;;;;;;5009378;28;20038;-74
2021/09/24 04:39:35;;;;;;;1092.95;983.55;;;;;;;;;;5009679;28;20517;-74
2021/09/24 04:42:01;;;;;;;1097.82;988.35;;;;;;;;;;5010657;28;20077;-73
2021/09/24 04:44:27;;;;;;;1093.07;983.78;;;;;;;;;;5007848;28;20017;-73
2021/09/24 04:46:54;;;;;;;1096.22;986.53;;;;;;;;;;5009177;28;20022;-74
2021/09/24 04:49:20;;;;;;;1100.55;990.65;;;;;;;;;;5009327;28;20053;-74
2021/09/24 04:51:46;;;;;;;1107.78;996.50;;;;;;;;;;5008735;28;20046;-73
2021/09/24 04:54:13;;;;;;;1098.45;988.45;;;;;;;;;;5010400;28;20058;-73
2021/09/24 04:56:39;;;;;;;1098.60;988.88;;;;;;;;;;5009944;28;20046;-73
2021/09/24 04:59:06;;;;;;;1095.57;985.90;;;;;;;;;;5010620;28;20025;-73
2021/09/24 05:01:32;;;;;;;1105.35;994.67;;;;;;;;;;5017538;28;20220;-73
2021/09/24 05:03:59;;;;;;;1101.25;991.00;;;;;;;;;;5008099;28;20041;-73
2021/09/24 05:06:25;;;;;;;1099.32;989.25;;;;;;;;;;5010178;28;20026;-74
2021/09/24 05:08:51;;;;;;;1105.72;994.65;;;;;;;;;;5020367;28;20355;-73
2021/09/24 05:11:18;;;;;;;1102.53;992.03;;;;;;;;;;5011657;28;21269;-74
2021/09/24 05:13:44;;;;;;;1098.50;988.25;;;;;;;;;;5009103;28;20454;-73
2021/09/24 05:16:11;;;;;;;1107.25;995.85;;;;;;;;;;5010089;28;20030;-73
2021/09/24 05:18:38;;;;;;;1096.40;986.55;;;;;;;;;;5008725;28;20141;-74
2021/09/24 05:21:05;;;;;;;1085.22;975.85;;;;;;;;;;5007882;28;20037;-74
2021/09/24 05:23:32;;;;;;;1089.75;980.28;;;;;;;;;;5008438;28;20021;-74
2021/09/24 05:25:58;;;;;;;1086.88;977.70;;;;;;;;;;5012670;28;20026;-73
2021/09/24 05:28:24;;;;;;;1081.45;972.42;;;;;;;;;;5007519;28;20034;-72
2021/09/24 05:30:50;;;;;;;1082.35;973.20;;;;;;;;;;5007024;28;20030;-73
2021/09/24 05:33:17;;;;;;;1086.70;977.17;;;;;;;;;;5009690;28;20483;-74
2021/09/24 05:35:44;;;;;;;1086.38;976.97;;;;;;;;;;5009950;28;20528;-73
2021/09/24 05:38:11;;;;;;;1095.10;985.00;;;;;;;;;;5007684;28;20053;-73
2021/09/24 05:40:37;;;;;;;1092.40;982.70;;;;;;;;;;5007080;28;20044;-73
2021/09/24 05:43:03;;;;;;;1093.90;984.00;;;;;;;;;;5019591;28;20137;-72
2021/09/24 05:45:30;;;;;;;1091.15;981.75;;;;;;;;;;5008826;28;20032;-73
2021/09/24 05:48:00;;;;;;;1087.57;978.38;;;;;;;;;;5008084;28;20072;-73
2021/09/24 05:50:26;;;;;;;1090.38;981.17;;;;;;;;;;5007206;28;20045;-73
2021/09/24 05:52:53;;;;;;;1092.30;982.83;;;;;;;;;;5008965;28;20122;-73
2021/09/24 05:55:21;;;;;;;1092.78;982.85;;;;;;;;;;5006867;28;20084;-74
2021/09/24 05:57:48;;;;;;;1097.53;987.35;;;;;;;;;;5009716;28;20067;-75
2021/09/24 06:00:15;;;;;;;1082.05;972.90;;;;;;;;;;5011678;28;20096;-75
2021/09/24 06:02:42;;;;;;;1095.28;985.35;;;;;;;;;;5010248;28;20541;-74
2021/09/24 06:05:08;;;;;;;1087.63;978.38;;;;;;;;;;5007473;28;20033;-73
2021/09/24 06:07:35;;;;;;;1089.40;980.03;;;;;;;;;;5008027;28;20349;-73
2021/09/24 06:10:02;;;;;;;1087.38;978.17;;;;;;;;;;5009466;28;20018;-73
2021/09/24 06:12:28;;;;;;;1085.90;976.92;;;;;;;;;;5008583;28;20127;-73
2021/09/24 06:14:57;;;;;;;1086.15;976.67;;;;;;;;;;5008834;28;20022;-73
2021/09/24 06:17:23;;;;;;;1091.10;981.20;;;;;;;;;;5012678;28;20040;-73
2021/09/24 06:19:49;;;;;;;1085.68;976.88;;;;;;;;;;5012826;28;20496;-73
2021/09/24 06:22:16;;;;;;;1091.38;982.33;;;;;;;;;;5012439;28;20049;-75
2021/09/24 06:24:44;;;;;;;1096.13;986.72;;;;;;;;;;5011115;28;20018;-73
2021/09/24 06:27:14;;;;;;;1092.13;982.85;;;;;;;;;;5009521;28;20029;-74
2021/09/24 06:29:41;;;;;;;1085.82;977.17;;;;;;;;;;5018333;28;20454;-73
2021/09/24 06:32:07;;;;;;;1099.90;990.38;;;;;;;;;;5013436;28;20485;-73
2021/09/24 06:34:35;;;;;;;1103.90;994.13;;;;;;;;;;5010733;28;20108;-74
2021/09/24 06:37:02;;;;;;;1099.22;989.03;;;;;;;;;;5011780;28;20018;-73
2021/09/24 06:39:28;;;;;;;1102.07;992.38;;;;;;;;;;5011526;28;20032;-73
2021/09/24 06:41:54;;;;;;;1108.82;996.72;;;;;;;;;;5012117;28;20030;-75
2021/09/24 06:44:20;;;;;;;1104.90;994.80;;;;;;;;;;5007410;28;20048;-74
2021/09/24 06:46:46;;;;;;;1111.10;998.35;;;;;;;;;;5010513;28;20029;-73
2021/09/24 06:49:13;;;;;;;1121.95;999.90;;;;;;;;;;5006405;28;20061;-75
2021/09/24 06:51:39;;;;;;;1112.55;998.80;;;;;;;;;;5007811;28;20034;-74
2021/09/24 06:54:05;;;;;;;1119.28;999.90;;;;;;;;;;5006531;28;20050;-74
2021/09/24 06:56:31;;;;;;;1116.45;999.75;;;;;;;;;;5006843;28;20064;-74
2021/09/24 06:58:59;;;;;;;1123.38;999.90;;;;;;;;;;5007647;28;20030;-73
2021/09/24 07:01:25;;;;;;;1126.22;999.90;;;;;;;;;;5004315;28;20568;-73
2021/09/24 07:03:51;;;;;;;1129.72;999.90;;;;;;;;;;5003903;28;20402;-73
2021/09/24 07:06:17;;;;;;;1135.13;999.90;;;;;;;;;;5006803;28;20034;-73
2021/09/24 07:08:45;;;;;;;1123.90;999.90;;;;;;;;;;5017729;28;20172;-76
2021/09/24 07:11:11;;;;;;;1133.75;999.90;;;;;;;;;;5008266;28;20033;-75
2021/09/24 07:13:37;;;;;;;1137.88;999.90;;;;;;;;;;5007606;28;20032;-74
2021/09/24 07:16:04;;;;;;;1137.88;999.90;;;;;;;;;;5008148;28;20571;-74
2021/09/24 07:18:31;;;;;;;1128.20;999.90;;;;;;;;;;5004510;28;20141;-74
2021/09/24 07:20:57;;;;;;;1138.07;999.90;;;;;;;;;;5016094;28;20030;-74
2021/09/24 07:23:23;;;;;;;1129.85;999.90;;;;;;;;;;4994865;28;20533;-74
2021/09/24 07:25:50;;;;;;;1128.10;999.90;;;;;;;;;;5003666;28;20030;-74
2021/09/24 07:28:16;;;;;;;1129.70;999.90;;;;;;;;;;5000498;28;20108;-74
2021/09/24 07:30:42;;;;;;;1127.68;999.90;;;;;;;;;;4997843;28;20030;-74
2021/09/24 07:33:08;;;;;;;1134.90;999.90;;;;;;;;;;5002865;28;20053;-74
2021/09/24 07:35:34;;;;;;;1128.93;999.90;;;;;;;;;;5003872;28;20021;-73
2021/09/24 07:38:01;;;;;;;1124.40;999.90;;;;;;;;;;5001872;28;20057;-71
2021/09/24 07:40:28;;;;;;;1127.25;999.90;;;;;;;;;;5001598;28;20033;-73
2021/09/24 07:42:54;;;;;;;1134.35;999.90;;;;;;;;;;5004740;28;20025;-74
2021/09/24 07:45:20;;;;;;;1135.13;999.90;;;;;;;;;;5004406;28;20037;-74
2021/09/24 07:47:46;;;;;;;1131.90;999.90;;;;;;;;;;5005591;28;20569;-73
2021/09/24 07:50:12;;;;;;;1136.35;999.90;;;;;;;;;;4998598;28;20034;-75
2021/09/24 07:52:39;;;;;;;1135.85;999.90;;;;;;;;;;5004148;28;20065;-74
2021/09/24 07:55:05;;;;;;;1132.55;999.90;;;;;;;;;;5002919;28;20040;-74
2021/09/24 07:57:31;;;;;;;1133.80;999.90;;;;;;;;;;5003324;28;20497;-73
2021/09/24 07:59:58;;;;;;;1134.13;999.90;;;;;;;;;;5000510;28;20444;-73
2021/09/24 08:02:23;;;;;;;1142.97;999.90;;;;;;;;;;5002137;28;20017;-74
2021/09/24 08:04:49;;;;;;;1140.13;999.90;;;;;;;;;;5001661;28;20488;-76
2021/09/24 08:07:16;;;;;;;1145.70;999.90;;;;;;;;;;5003947;28;20021;-73
2021/09/24 08:09:42;;;;;;;1151.15;999.90;;;;;;;;;;5009692;28;20049;-74
2021/09/24 08:12:08;;;;;;;1149.57;999.90;;;;;;;;;;5004694;28;20510;-74
2021/09/24 08:14:34;;;;;;;1150.68;999.90;;;;;;;;;;5001800;28;20025;-74
2021/09/24 08:17:00;;;;;;;1160.60;999.90;;;;;;;;;;5000891;28;20148;-72
2021/09/24 08:19:26;;;;;;;1161.57;999.90;;;;;;;;;;5002296;28;20045;-74
2021/09/24 08:21:52;;;;;;;1158.45;999.90;;;;;;;;;;5002425;28;20030;-72
2021/09/24 08:24:18;;;;;;;1155.47;999.90;;;;;;;;;;5003519;28;20156;-73
2021/09/24 08:26:44;;;;;;;1161.40;999.90;;;;;;;;;;5000736;28;20221;-74
2021/09/24 08:29:10;;;;;;;1160.68;999.90;;;;;;;;;;5001828;28;20501;-73
2021/09/24 08:31:37;;;;;;;1168.80;999.90;;;;;;;;;;4999537;28;20066;-73
2021/09/24 08:34:03;;;;;;;1167.10;999.90;;;;;;;;;;5002696;28;20037;-73
2021/09/24 08:36:29;;;;;;;1179.57;999.90;;;;;;;;;;5002943;28;20277;-74
2021/09/24 08:38:56;;;;;;;1183.50;999.90;;;;;;;;;;5001579;28;20036;-72
2021/09/24 08:41:26;;;;;;;1180.80;999.90;;;;;;;;;;5001200;28;20093;-72
2021/09/24 08:43:53;;;;;;;1182.22;999.90;;;;;;;;;;5003534;28;20033;-73
2021/09/24 08:46:19;;;;;;;1172.00;999.90;;;;;;;;;;5003894;28;20062;-72
2021/09/24 08:48:45;;;;;;;1172.88;999.90;;;;;;;;;;5000486;28;20014;-73
2021/09/24 08:51:13;;;;;;;1174.07;999.90;;;;;;;;;;5004930;28;20504;-73
2021/09/24 08:53:39;;;;;;;1175.80;999.90;;;;;;;;;;5006066;28;20468;-73
2021/09/24 08:56:07;;;;;;;1173.10;999.90;;;;;;;;;;5004164;28;20018;-71
2021/09/24 08:58:34;;;;;;;1177.18;999.90;;;;;;;;;;5006472;28;20112;-75
2021/09/24 09:01:00;;;;;;;1180.18;999.90;;;;;;;;;;5008804;28;20688;-75
2021/09/24 09:03:36;;;;;;;1174.57;999.90;;;;;;;;;;5008656;28;20030;-74
2021/09/24 09:06:03;;;;;;;1181.53;999.90;;;;;;;;;;5006759;28;20034;-75
2021/09/24 09:08:30;;;;;;;1179.32;999.90;;;;;;;;;;5005565;28;20477;-76
2021/09/24 09:10:57;;;;;;;1185.05;999.90;;;;;;;;;;5006651;28;20113;-75
2021/09/24 09:13:26;;;;;;;1188.93;999.90;;;;;;;;;;5009032;28;20956;-75
2021/09/24 09:15:55;;;;;;;1191.90;999.90;;;;;;;;;;5012367;28;20510;-75
2021/09/24 09:18:22;;;;;;;1203.10;999.90;;;;;;;;;;5008239;28;20041;-76
2021/09/24 09:20:49;;;;;;;1197.90;999.90;;;;;;;;;;5005638;28;20524;-76
2021/09/24 09:23:15;;;;;;;1203.28;999.90;;;;;;;;;;5022262;28;20022;-77
2021/09/24 09:25:42;;;;;;;1200.82;999.90;;;;;;;;;;5006621;28;20041;-76
2021/09/24 09:28:13;;;;;;;1203.70;999.90;;;;;;;;;;5004025;28;20033;-76
2021/09/24 09:30:40;;;;;;;1207.80;999.90;;;;;;;;;;5019962;28;20738;-75
2021/09/24 09:33:14;;;;;;;1212.50;999.90;;;;;;;;;;5004463;28;20033;-76
2021/09/24 09:35:48;;;;;;;1219.22;999.90;;;;;;;;;;5006459;28;20047;-76
2021/09/24 09:38:25;;;;;;;1216.05;999.90;;;;;;;;;;5005889;28;20029;-76
2021/09/24 09:40:54;;;;;;;1224.05;999.90;;;;;;;;;;5021158;28;20036;-76
2021/09/24 09:43:26;;;;;;;1239.00;999.90;;;;;;;;;;5004192;28;20421;-78
2021/09/24 09:45:52;;;;;;;1226.47;999.90;;;;;;;;;;5007496;28;20029;-77
2021/09/24 09:48:18;;;;;;;1231.55;999.90;;;;;;;;;;5008253;28;20096;-75
2021/09/24 09:50:44;;;;;;;1234.88;999.90;;;;;;;;;;5006128;28;20034;-76
2021/09/24 09:53:12;;;;;;;1234.63;999.90;;;;;;;;;;5003388;28;20111;-75
2021/09/24 09:55:39;;;;;;;1232.85;999.90;;;;;;;;;;5006970;28;20068;-75
2021/09/24 09:58:10;;;;;;;1235.93;999.90;;;;;;;;;;5005310;28;20034;-77
2021/09/24 10:00:51;;;;;;;1239.88;999.90;;;;;;;;;;4999903;28;20042;-76
2021/09/24 10:03:17;;;;;;;1233.63;999.90;;;;;;;;;;5006987;28;20022;-74
2021/09/24 10:05:44;;;;;;;1242.28;999.90;;;;;;;;;;4995568;28;20028;-75
2021/09/24 10:08:19;;;;;;;1241.03;999.90;;;;;;;;;;5003168;28;20068;-74
2021/09/24 10:10:56;;;;;;;1237.60;999.90;;;;;;;;;;5003726;28;20036;-75
2021/09/24 10:13:23;;;;;;;1237.68;999.90;;;;;;;;;;5001426;28;20156;-75
2021/09/24 10:15:49;;;;;;;1236.57;999.90;;;;;;;;;;5006733;28;20134;-74
2021/09/24 10:18:16;;;;;;;1237.18;999.90;;;;;;;;;;5005182;28;20049;-74
2021/09/24 10:20:42;;;;;;;1249.57;999.90;;;;;;;;;;5002465;28;20018;-74
2021/09/24 10:23:10;;;;;;;1249.93;999.90;;;;;;;;;;5004207;28;20081;-75
2021/09/24 10:25:37;;;;;;;1253.78;999.90;;;;;;;;;;5007108;28;20205;-75
2021/09/24 10:28:04;;;;;;;1254.97;999.90;;;;;;;;;;5003929;28;20129;-76
2021/09/24 10:30:31;;;;;;;1258.75;999.90;;;;;;;;;;5002698;28;20521;-76
2021/09/24 10:33:02;;;;;;;1256.97;999.90;;;;;;;;;;4998499;28;20030;-75
2021/09/24 10:35:47;;;;;;;1261.50;999.90;;;;;;;;;;5006263;28;20095;-76
2021/09/24 10:38:14;;;;;;;1251.78;999.90;;;;;;;;;;5002402;28;20033;-76
2021/09/24 10:40:52;;;;;;;1261.55;999.90;;;;;;;;;;5006139;28;20477;-75
2021/09/24 10:43:18;;;;;;;1259.07;999.90;;;;;;;;;;5000398;28;20033;-75
2021/09/24 10:45:44;;;;;;;1265.03;999.90;;;;;;;;;;5003940;28;20025;-75
2021/09/24 10:48:25;;;;;;;1266.38;999.90;;;;;;;;;;4998798;28;20058;-74
2021/09/24 10:50:57;;;;;;;1264.03;999.90;;;;;;;;;;5006505;28;20076;-75
2021/09/24 10:53:46;;;;;;;1260.68;999.90;;;;;;;;;;5006844;28;20054;-76
2021/09/24 10:56:12;;;;;;;1264.93;999.90;;;;;;;;;;5018472;28;20033;-74
2021/09/24 10:58:41;;;;;;;1266.45;999.90;;;;;;;;;;5005214;28;20041;-75
2021/09/24 11:01:11;;;;;;;1269.05;999.90;;;;;;;;;;4997483;28;21295;-75
2021/09/24 11:03:53;;;;;;;1272.50;999.90;;;;;;;;;;5002762;28;20021;-75
2021/09/24 11:06:33;;;;;;;1271.05;999.90;;;;;;;;;;5007754;28;20058;-76
2021/09/24 11:09:00;;;;;;;1267.63;999.90;;;;;;;;;;5003439;28;20025;-76
2021/09/24 11:11:30;;;;;;;1278.28;999.90;;;;;;;;;;5002919;28;20129;-76
2021/09/24 11:14:02;;;;;;;1267.78;999.90;;;;;;;;;;5011919;28;20452;-76
2021/09/24 11:16:29;;;;;;;1275.13;999.90;;;;;;;;;;4999613;28;20514;-76
2021/09/24 11:18:56;;;;;;;1276.78;999.90;;;;;;;;;;5009719;28;20454;-75
2021/09/24 11:21:31;;;;;;;1282.50;999.90;;;;;;;;;;5010460;28;20030;-76
2021/09/24 11:23:58;;;;;;;1274.13;999.90;;;;;;;;;;5011359;28;20034;-75
2021/09/24 11:26:25;;;;;;;1273.80;999.90;;;;;;;;;;4997273;28;20061;-75
2021/09/24 11:29:06;;;;;;;1278.40;999.90;;;;;;;;;;5008847;28;20030;-75
2021/09/24 11:31:51;;;;;;;1272.55;999.90;;;;;;;;;;5008261;28;20026;-75
2021/09/24 11:34:37;;;;;;;1267.93;999.90;;;;;;;;;;5009166;28;20029;-75
2021/09/24 11:37:04;;;;;;;1275.47;999.90;;;;;;;;;;5021364;28;20075;-75
2021/09/24 11:39:30;;;;;;;1281.82;999.90;;;;;;;;;;5010324;28;20026;-75
2021/09/24 11:42:18;;;;;;;1284.72;999.90;;;;;;;;;;5009670;28;20038;-75
2021/09/24 11:44:46;;;;;;;1291.95;999.90;;;;;;;;;;5010729;28;20030;-75
2021/09/24 11:47:22;;;;;;;1302.80;999.90;;;;;;;;;;5009395;28;20080;-75
2021/09/24 11:49:52;;;;;;;1315.28;999.90;;;;;;;;;;5034788;28;20084;-75
2021/09/24 11:52:18;;;;;;;1322.38;999.90;;;;;;;;;;4998865;28;20377;-76
2021/09/24 11:54:44;;;;;;;1318.13;999.90;;;;;;;;;;5001696;28;20018;-76
2021/09/24 11:57:15;;;;;;;1316.90;999.90;;;;;;;;;;5001931;28;20520;-76
2021/09/24 11:59:41;;;;;;;1308.95;999.90;;;;;;;;;;4993235;28;20023;-75
2021/09/24 12:02:25;;;;;;;1310.25;999.90;;;;;;;;;;5001733;28;20018;-75
2021/09/24 12:05:01;;;;;;;1306.55;999.90;;;;;;;;;;4998917;28;20113;-75
2021/09/24 12:07:28;;;;;;;1300.80;999.90;;;;;;;;;;4996894;28;20080;-76
2021/09/24 12:09:58;;;;;;;1301.10;999.90;;;;;;;;;;4998964;28;20030;-75
2021/09/24 12:12:28;;;;;;;1297.95;999.90;;;;;;;;;;5017643;28;20058;-75
2021/09/24 12:14:55;;;;;;;1298.90;999.90;;;;;;;;;;5002277;28;20028;-76
2021/09/24 12:17:25;;;;;;;1292.75;999.90;;;;;;;;;;5002741;28;20704;-74
2021/09/24 12:19:51;;;;;;;1293.40;999.90;;;;;;;;;;5025327;28;20312;-75
2021/09/24 12:22:17;;;;;;;1293.78;999.90;;;;;;;;;;4998903;28;20022;-75
2021/09/24 12:24:47;;;;;;;1286.70;999.90;;;;;;;;;;5008385;28;20026;-75
2021/09/24 12:27:30;;;;;;;1280.95;999.90;;;;;;;;;;5010482;28;20026;-75
2021/09/24 12:30:11;;;;;;;1276.93;999.90;;;;;;;;;;5011725;28;20018;-74
2021/09/24 12:32:40;;;;;;;1281.57;999.90;;;;;;;;;;5030573;28;20686;-75
2021/09/24 12:35:07;;;;;;;1276.67;999.90;;;;;;;;;;5011055;28;20038;-74
2021/09/24 12:37:35;;;;;;;1279.55;999.90;;;;;;;;;;5009807;28;20272;-76
2021/09/24 12:40:05;;;;;;;1282.95;999.90;;;;;;;;;;5004236;28;20025;-75
2021/09/24 12:42:35;;;;;;;1277.38;999.90;;;;;;;;;;5004991;28;20026;-75
2021/09/24 12:45:01;;;;;;;1273.57;999.90;;;;;;;;;;5016564;28;20040;-75
2021/09/24 12:47:30;;;;;;;1272.00;999.90;;;;;;;;;;5015738;28;20437;-75
2021/09/24 12:49:57;;;;;;;1278.40;999.90;;;;;;;;;;5009036;28;20031;-75
2021/09/24 12:52:24;;;;;;;1275.90;999.90;;;;;;;;;;5009725;28;20026;-74
2021/09/24 12:54:50;;;;;;;1263.88;999.90;;;;;;;;;;5026025;28;20036;-75
2021/09/24 12:57:17;;;;;;;1268.25;999.90;;;;;;;;;;5016688;28;20100;-75
2021/09/24 12:59:48;;;;;;;1274.25;999.90;;;;;;;;;;5012887;28;20025;-74
2021/09/24 13:02:15;;;;;;;1270.45;999.90;;;;;;;;;;5011974;28;20071;-76
2021/09/24 13:04:42;;;;;;;1274.13;999.90;;;;;;;;;;5005447;28;20430;-76
2021/09/24 13:07:08;;;;;;;1281.90;999.90;;;;;;;;;;5010409;28;20109;-76
2021/09/24 13:09:35;;;;;;;1270.80;999.90;;;;;;;;;;5003226;28;20395;-75
2021/09/24 13:12:05;;;;;;;1267.80;999.90;;;;;;;;;;5004707;28;20773;-75
2021/09/24 13:14:32;;;;;;;1263.82;999.90;;;;;;;;;;5007652;28;20048;-76
2021/09/24 13:17:01;;;;;;;1265.63;999.90;;;;;;;;;;5006481;28;20129;-75
2021/09/24 13:19:28;;;;;;;1261.38;999.90;;;;;;;;;;5002006;28;20029;-74
2021/09/24 13:21:53;;;;;;;1269.38;999.90;;;;;;;;;;5013442;28;20027;-74
2021/09/24 13:24:19;;;;;;;1268.60;999.90;;;;;;;;;;5006428;28;20076;-76
2021/09/24 13:26:46;;;;;;;1263.70;999.90;;;;;;;;;;5012072;28;20022;-75
2021/09/24 13:29:12;;;;;;;1265.60;999.90;;;;;;;;;;5015103;28;20105;-75
2021/09/24 13:31:38;;;;;;;1263.07;999.90;;;;;;;;;;5012073;28;20028;-76
2021/09/24 13:34:05;;;;;;;1271.13;999.90;;;;;;;;;;5009428;28;20033;-75
2021/09/24 13:36:32;;;;;;;1276.55;999.90;;;;;;;;;;5012304;28;20026;-76
2021/09/24 13:38:58;;;;;;;1270.97;999.90;;;;;;;;;;5012525;28;20034;-76
2021/09/24 13:41:25;;;;;;;1262.43;999.90;;;;;;;;;;5013707;28;20073;-75
2021/09/24 13:43:51;;;;;;;1266.20;999.90;;;;;;;;;;5013850;28;20034;-76